Hauptseite
METAR-TAF:

METAR-TAF

Flughäfen :

Altenburg, Deutschland

Leipzig-Altenburg Airport

Breite: 50-58N, Länge: 012-30E, Höhe: 195 m

Beobachtung

Neuester Wetterbericht von vor 28 Minuten, um 13:20 UTC
Wind 11 kt aus Nordost, Böen bis zu 21 kt, variierte zwischen Nord und Ost
Temperatur 0°C
Luftfeuchtigkeit 40%
Luftdruck 1026 hPa
Sichtweite 10 km oder mehr
Leicht bewölkt in der Höhe von 4500 ft

METAR: EDAC 241320Z 05011G21KT 010V100 9999 FEW045 M00/M12 Q1026

Zeit: 14:48 (13:48 UTC)

Prognose

Neuester Wetterbericht von vor 2 Stunden und 48 Minuten, um 11:00 UTC
Gültige Prognose vom 24 um 12 UTC bis 24 um 21 UTC
Wind 10 kt aus Ost/Nordost
Sichtweite 10 km oder mehr
Aufgelockert bewölkt in der Höhe von 2000 ft
Zeitweise
vom 24 um 12 UTC bis 24 um 15 UTC
Wind 15 kt aus Nordost, Böen bis zu 25 kt

TAF: EDAC 241100Z 2412/2421 06010KT 9999 SCT020 TEMPO 2412/2415 05015G25KT

Wetterbeobachtungen und Prognosen von mehr als 4000 Flughäfen (METAR und TAF Bericht).

Die verfügbaren Stationen werden durch gelbe und rote Markierungen auf der Karte dargestellt.

Führen Sie die Maus auf sie, um den Namen der Station zu sehen.

Darauf klicken, um die Beobachtung von Wetterbeobachtungen und Prognosen zu sehen.

Um die Karte zu ändern : klicken Sie auf den grünen Tasten mit einem schwarzen Kreuz Zum Vergrößern, auf den grünen Button mit einem Gedankenstrich zu verkleinern, oder auf die grünen Pfeile für benachbarte Karten.


METAR-TAF: